sensor_id;sensor_type;location;lat;lon;timestamp;temperature;humidity
3208;DHT22;1616;52.394;9.756;2023-05-02T00:00:32;17.70;1.00
3208;DHT22;1616;52.394;9.756;2023-05-02T00:02:59;17.70;1.00
3208;DHT22;1616;52.394;9.756;2023-05-02T00:05:25;17.70;1.00
3208;DHT22;1616;52.394;9.756;2023-05-02T00:07:51;17.70;1.00
3208;DHT22;1616;52.394;9.756;2023-05-02T00:10:17;17.70;1.00
3208;DHT22;1616;52.394;9.756;2023-05-02T00:12:43;17.70;1.00
3208;DHT22;1616;52.394;9.756;2023-05-02T00:15:09;17.70;1.00
3208;DHT22;1616;52.394;9.756;2023-05-02T00:17:35;17.70;1.00
3208;DHT22;1616;52.394;9.756;2023-05-02T00:20:01;17.70;1.00
3208;DHT22;1616;52.394;9.756;2023-05-02T00:22:28;17.70;1.00
3208;DHT22;1616;52.394;9.756;2023-05-02T00:24:57;17.80;1.00
3208;DHT22;1616;52.394;9.756;2023-05-02T00:27:23;17.80;1.00
3208;DHT22;1616;52.394;9.756;2023-05-02T00:29:49;17.80;1.00
3208;DHT22;1616;52.394;9.756;2023-05-02T00:32:17;17.80;1.00
3208;DHT22;1616;52.394;9.756;2023-05-02T00:34:43;17.90;1.00
3208;DHT22;1616;52.394;9.756;2023-05-02T00:37:08;17.80;1.00
3208;DHT22;1616;52.394;9.756;2023-05-02T00:39:34;17.80;1.00
3208;DHT22;1616;52.394;9.756;2023-05-02T00:42:01;17.60;1.00
3208;DHT22;1616;52.394;9.756;2023-05-02T00:44:27;17.60;1.00
3208;DHT22;1616;52.394;9.756;2023-05-02T00:46:54;17.50;1.00
3208;DHT22;1616;52.394;9.756;2023-05-02T00:49:20;17.50;1.00
3208;DHT22;1616;52.394;9.756;2023-05-02T00:51:46;17.40;1.00
3208;DHT22;1616;52.394;9.756;2023-05-02T00:54:12;17.40;1.00
3208;DHT22;1616;52.394;9.756;2023-05-02T00:56:38;17.40;1.00
3208;DHT22;1616;52.394;9.756;2023-05-02T00:59:04;17.40;1.00
3208;DHT22;1616;52.394;9.756;2023-05-02T01:13:23;17.30;1.00
3208;DHT22;1616;52.394;9.756;2023-05-02T01:15:52;17.30;1.00
3208;DHT22;1616;52.394;9.756;2023-05-02T01:18:22;17.20;1.00
3208;DHT22;1616;52.394;9.756;2023-05-02T01:20:54;17.20;1.00
3208;DHT22;1616;52.394;9.756;2023-05-02T01:23:30;17.20;1.00
3208;DHT22;1616;52.394;9.756;2023-05-02T01:26:14;17.10;1.00
3208;DHT22;1616;52.394;9.756;2023-05-02T01:28:56;17.10;1.00
3208;DHT22;1616;52.394;9.756;2023-05-02T01:31:24;17.00;1.00
3208;DHT22;1616;52.394;9.756;2023-05-02T01:33:57;17.00;1.00
3208;DHT22;1616;52.394;9.756;2023-05-02T01:36:24;17.00;1.00
3208;DHT22;1616;52.394;9.756;2023-05-02T01:38:53;17.00;1.00
3208;DHT22;1616;52.394;9.756;2023-05-02T01:41:21;17.00;1.00
3208;DHT22;1616;52.394;9.756;2023-05-02T01:43:49;17.00;1.00
3208;DHT22;1616;52.394;9.756;2023-05-02T01:46:17;17.00;1.00
3208;DHT22;1616;52.394;9.756;2023-05-02T01:48:45;16.90;1.00
3208;DHT22;1616;52.394;9.756;2023-05-02T01:51:14;16.90;1.00
3208;DHT22;1616;52.394;9.756;2023-05-02T01:53:40;16.90;1.00
3208;DHT22;1616;52.394;9.756;2023-05-02T01:56:07;16.80;1.00
3208;DHT22;1616;52.394;9.756;2023-05-02T01:58:34;16.70;1.00
3208;DHT22;1616;52.394;9.756;2023-05-02T02:01:01;16.70;1.00
3208;DHT22;1616;52.394;9.756;2023-05-02T02:03:29;16.80;1.00
3208;DHT22;1616;52.394;9.756;2023-05-02T02:05:55;16.80;1.00
3208;DHT22;1616;52.394;9.756;2023-05-02T02:08:23;16.80;1.00
3208;DHT22;1616;52.394;9.756;2023-05-02T02:10:53;16.90;1.00
3208;DHT22;1616;52.394;9.756;2023-05-02T02:13:36;16.80;1.00
3208;DHT22;1616;52.394;9.756;2023-05-02T02:16:04;16.80;1.00
3208;DHT22;1616;52.394;9.756;2023-05-02T02:18:36;16.70;1.00
3208;DHT22;1616;52.394;9.756;2023-05-02T02:21:06;16.70;1.00
3208;DHT22;1616;52.394;9.756;2023-05-02T02:23:35;16.70;1.00
3208;DHT22;1616;52.394;9.756;2023-05-02T02:26:04;16.60;1.00
3208;DHT22;1616;52.394;9.756;2023-05-02T02:28:31;16.60;1.00
3208;DHT22;1616;52.394;9.756;2023-05-02T02:30:58;16.60;1.00
3208;DHT22;1616;52.394;9.756;2023-05-02T02:33:28;16.60;1.00
3208;DHT22;1616;52.394;9.756;2023-05-02T02:36:00;16.50;1.00
3208;DHT22;1616;52.394;9.756;2023-05-02T02:38:54;16.50;1.00
3208;DHT22;1616;52.394;9.756;2023-05-02T02:41:35;16.50;1.00
3208;DHT22;1616;52.394;9.756;2023-05-02T02:45:04;16.50;1.00
3208;DHT22;1616;52.394;9.756;2023-05-02T02:47:10;16.50;1.00
3208;DHT22;1616;52.394;9.756;2023-05-02T02:49:46;16.50;1.00
3208;DHT22;1616;52.394;9.756;2023-05-02T02:52:58;16.60;1.00
3208;DHT22;1616;52.394;9.756;2023-05-02T02:55:35;16.50;1.00
3208;DHT22;1616;52.394;9.756;2023-05-02T02:58:25;16.40;1.00
3208;DHT22;1616;52.394;9.756;2023-05-02T03:00:55;16.40;1.00
3208;DHT22;1616;52.394;9.756;2023-05-02T03:03:22;16.40;1.00
3208;DHT22;1616;52.394;9.756;2023-05-02T03:05:54;16.30;1.00
3208;DHT22;1616;52.394;9.756;2023-05-02T03:08:21;16.20;1.00
3208;DHT22;1616;52.394;9.756;2023-05-02T03:10:48;16.20;1.00
3208;DHT22;1616;52.394;9.756;2023-05-02T03:13:13;16.20;1.00
3208;DHT22;1616;52.394;9.756;2023-05-02T03:18:18;15.70;1.00
3208;DHT22;1616;52.394;9.756;2023-05-02T03:20:44;15.50;1.00
3208;DHT22;1616;52.394;9.756;2023-05-02T03:23:10;15.20;1.00
3208;DHT22;1616;52.394;9.756;2023-05-02T03:25:36;14.80;1.00
3208;DHT22;1616;52.394;9.756;2023-05-02T03:28:02;14.70;1.00
3208;DHT22;1616;52.394;9.756;2023-05-02T03:30:27;14.50;1.00
3208;DHT22;1616;52.394;9.756;2023-05-02T03:32:53;14.40;1.00
3208;DHT22;1616;52.394;9.756;2023-05-02T03:35:18;14.30;1.00
3208;DHT22;1616;52.394;9.756;2023-05-02T03:37:44;14.20;1.00
3208;DHT22;1616;52.394;9.756;2023-05-02T03:40:10;14.20;1.00
3208;DHT22;1616;52.394;9.756;2023-05-02T03:42:36;14.10;1.00
3208;DHT22;1616;52.394;9.756;2023-05-02T03:45:06;14.00;1.00
3208;DHT22;1616;52.394;9.756;2023-05-02T03:47:32;14.00;1.00
3208;DHT22;1616;52.394;9.756;2023-05-02T03:49:58;13.90;1.00
3208;DHT22;1616;52.394;9.756;2023-05-02T03:52:24;13.90;1.00
3208;DHT22;1616;52.394;9.756;2023-05-02T03:54:50;13.90;1.00
3208;DHT22;1616;52.394;9.756;2023-05-02T03:57:16;13.80;1.00
3208;DHT22;1616;52.394;9.756;2023-05-02T03:59:42;13.90;1.00
3208;DHT22;1616;52.394;9.756;2023-05-02T04:02:10;13.90;1.00
3208;DHT22;1616;52.394;9.756;2023-05-02T04:04:36;13.80;1.00
3208;DHT22;1616;52.394;9.756;2023-05-02T04:07:03;13.80;1.00
3208;DHT22;1616;52.394;9.756;2023-05-02T04:09:29;13.80;1.00
3208;DHT22;1616;52.394;9.756;2023-05-02T04:11:55;13.80;1.00
3208;DHT22;1616;52.394;9.756;2023-05-02T04:14:21;13.70;1.00
3208;DHT22;1616;52.394;9.756;2023-05-02T04:16:50;13.80;1.00
3208;DHT22;1616;52.394;9.756;2023-05-02T04:19:17;13.70;1.00
3208;DHT22;1616;52.394;9.756;2023-05-02T04:21:43;13.50;1.00
3208;DHT22;1616;52.394;9.756;2023-05-02T04:24:09;13.70;1.00
3208;DHT22;1616;52.394;9.756;2023-05-02T04:26:35;13.80;1.00
3208;DHT22;1616;52.394;9.756;2023-05-02T04:29:01;13.90;1.00
3208;DHT22;1616;52.394;9.756;2023-05-02T04:31:27;14.00;1.00
3208;DHT22;1616;52.394;9.756;2023-05-02T04:33:53;14.10;1.00
3208;DHT22;1616;52.394;9.756;2023-05-02T04:36:18;14.20;1.00
3208;DHT22;1616;52.394;9.756;2023-05-02T04:38:44;14.20;1.00
3208;DHT22;1616;52.394;9.756;2023-05-02T04:41:10;14.10;1.00
3208;DHT22;1616;52.394;9.756;2023-05-02T04:43:36;14.00;1.00
3208;DHT22;1616;52.394;9.756;2023-05-02T04:46:01;13.80;1.00
3208;DHT22;1616;52.394;9.756;2023-05-02T04:48:27;13.70;1.00
3208;DHT22;1616;52.394;9.756;2023-05-02T04:50:53;13.50;1.00
3208;DHT22;1616;52.394;9.756;2023-05-02T04:53:21;13.30;1.00
3208;DHT22;1616;52.394;9.756;2023-05-02T04:55:48;13.10;1.00
3208;DHT22;1616;52.394;9.756;2023-05-02T04:58:13;13.00;1.00
3208;DHT22;1616;52.394;9.756;2023-05-02T05:00:40;12.90;1.00
3208;DHT22;1616;52.394;9.756;2023-05-02T05:03:05;12.80;1.00
3208;DHT22;1616;52.394;9.756;2023-05-02T05:05:32;12.70;1.00
3208;DHT22;1616;52.394;9.756;2023-05-02T05:07:57;12.50;1.00
3208;DHT22;1616;52.394;9.756;2023-05-02T05:10:23;12.50;1.00
3208;DHT22;1616;52.394;9.756;2023-05-02T05:12:49;12.40;1.00
3208;DHT22;1616;52.394;9.756;2023-05-02T05:15:15;12.30;1.00
3208;DHT22;1616;52.394;9.756;2023-05-02T05:17:41;12.20;1.00
3208;DHT22;1616;52.394;9.756;2023-05-02T05:20:07;12.10;1.00
3208;DHT22;1616;52.394;9.756;2023-05-02T05:22:41;12.00;1.00
3208;DHT22;1616;52.394;9.756;2023-05-02T05:25:07;11.80;1.00
3208;DHT22;1616;52.394;9.756;2023-05-02T05:27:34;11.80;1.00
3208;DHT22;1616;52.394;9.756;2023-05-02T05:30:00;11.60;1.00
3208;DHT22;1616;52.394;9.756;2023-05-02T05:32:26;11.60;1.00
3208;DHT22;1616;52.394;9.756;2023-05-02T05:34:52;11.60;1.00
3208;DHT22;1616;52.394;9.756;2023-05-02T05:37:19;11.50;1.00
3208;DHT22;1616;52.394;9.756;2023-05-02T05:39:44;11.50;1.00
3208;DHT22;1616;52.394;9.756;2023-05-02T05:42:11;11.50;1.00
3208;DHT22;1616;52.394;9.756;2023-05-02T05:44:38;11.50;1.00
3208;DHT22;1616;52.394;9.756;2023-05-02T05:47:04;11.50;1.00
3208;DHT22;1616;52.394;9.756;2023-05-02T05:49:30;11.50;1.00
3208;DHT22;1616;52.394;9.756;2023-05-02T05:51:56;11.40;1.00
3208;DHT22;1616;52.394;9.756;2023-05-02T05:54:22;11.40;1.00
3208;DHT22;1616;52.394;9.756;2023-05-02T05:56:48;11.20;1.00
3208;DHT22;1616;52.394;9.756;2023-05-02T05:59:13;11.30;1.00
3208;DHT22;1616;52.394;9.756;2023-05-02T06:01:39;11.30;1.00
3208;DHT22;1616;52.394;9.756;2023-05-02T06:04:05;11.40;1.00
3208;DHT22;1616;52.394;9.756;2023-05-02T06:06:32;11.40;1.00
3208;DHT22;1616;52.394;9.756;2023-05-02T06:08:58;11.40;1.00
3208;DHT22;1616;52.394;9.756;2023-05-02T06:11:23;11.40;1.00
3208;DHT22;1616;52.394;9.756;2023-05-02T06:13:51;11.40;1.00
3208;DHT22;1616;52.394;9.756;2023-05-02T06:16:16;11.50;1.00
3208;DHT22;1616;52.394;9.756;2023-05-02T06:18:45;11.40;1.00
3208;DHT22;1616;52.394;9.756;2023-05-02T06:21:11;11.40;1.00
3208;DHT22;1616;52.394;9.756;2023-05-02T06:23:37;11.50;1.00
3208;DHT22;1616;52.394;9.756;2023-05-02T06:26:04;11.30;1.00
3208;DHT22;1616;52.394;9.756;2023-05-02T06:28:30;11.30;1.00
3208;DHT22;1616;52.394;9.756;2023-05-02T06:31:00;11.30;1.00
3208;DHT22;1616;52.394;9.756;2023-05-02T06:33:27;11.20;1.00
3208;DHT22;1616;52.394;9.756;2023-05-02T06:35:52;11.30;1.00
3208;DHT22;1616;52.394;9.756;2023-05-02T06:38:19;11.30;1.00
3208;DHT22;1616;52.394;9.756;2023-05-02T06:40:44;11.40;1.00
3208;DHT22;1616;52.394;9.756;2023-05-02T06:43:11;11.50;1.00
3208;DHT22;1616;52.394;9.756;2023-05-02T06:45:37;11.60;1.00
3208;DHT22;1616;52.394;9.756;2023-05-02T06:48:04;11.70;1.00
3208;DHT22;1616;52.394;9.756;2023-05-02T06:50:29;11.70;1.00
3208;DHT22;1616;52.394;9.756;2023-05-02T06:52:55;11.80;1.00
3208;DHT22;1616;52.394;9.756;2023-05-02T06:55:21;11.90;1.00
3208;DHT22;1616;52.394;9.756;2023-05-02T06:57:50;11.90;1.00
3208;DHT22;1616;52.394;9.756;2023-05-02T07:00:17;12.00;1.00
3208;DHT22;1616;52.394;9.756;2023-05-02T07:02:44;12.10;1.00
3208;DHT22;1616;52.394;9.756;2023-05-02T07:05:10;12.20;1.00
3208;DHT22;1616;52.394;9.756;2023-05-02T07:07:35;12.20;1.00
3208;DHT22;1616;52.394;9.756;2023-05-02T07:10:02;12.40;1.00
3208;DHT22;1616;52.394;9.756;2023-05-02T07:12:28;12.60;1.00
3208;DHT22;1616;52.394;9.756;2023-05-02T07:14:54;12.70;1.00
3208;DHT22;1616;52.394;9.756;2023-05-02T07:17:19;12.90;1.00
3208;DHT22;1616;52.394;9.756;2023-05-02T07:19:46;13.20;1.00
3208;DHT22;1616;52.394;9.756;2023-05-02T07:22:11;13.40;1.00
3208;DHT22;1616;52.394;9.756;2023-05-02T07:24:41;13.50;1.00
3208;DHT22;1616;52.394;9.756;2023-05-02T07:27:11;13.50;1.00
3208;DHT22;1616;52.394;9.756;2023-05-02T07:29:37;13.60;1.00
3208;DHT22;1616;52.394;9.756;2023-05-02T07:32:03;13.60;1.00
3208;DHT22;1616;52.394;9.756;2023-05-02T07:34:29;13.60;1.00
3208;DHT22;1616;52.394;9.756;2023-05-02T07:36:55;13.70;1.00
3208;DHT22;1616;52.394;9.756;2023-05-02T07:39:23;13.70;1.00
3208;DHT22;1616;52.394;9.756;2023-05-02T07:41:52;13.80;1.00
3208;DHT22;1616;52.394;9.756;2023-05-02T07:44:18;13.80;1.00
3208;DHT22;1616;52.394;9.756;2023-05-02T07:46:44;13.80;1.00
3208;DHT22;1616;52.394;9.756;2023-05-02T07:49:12;13.80;1.00
3208;DHT22;1616;52.394;9.756;2023-05-02T07:51:38;13.80;1.00
3208;DHT22;1616;52.394;9.756;2023-05-02T07:54:17;13.70;1.00
3208;DHT22;1616;52.394;9.756;2023-05-02T07:56:44;13.70;1.00
3208;DHT22;1616;52.394;9.756;2023-05-02T07:59:09;13.70;1.00
3208;DHT22;1616;52.394;9.756;2023-05-02T08:01:36;13.60;1.00
3208;DHT22;1616;52.394;9.756;2023-05-02T08:04:01;13.70;1.00
3208;DHT22;1616;52.394;9.756;2023-05-02T08:06:29;13.70;1.00
3208;DHT22;1616;52.394;9.756;2023-05-02T08:08:56;13.70;1.00
3208;DHT22;1616;52.394;9.756;2023-05-02T08:11:21;13.70;1.00
3208;DHT22;1616;52.394;9.756;2023-05-02T08:13:50;13.70;1.00
3208;DHT22;1616;52.394;9.756;2023-05-02T08:16:16;13.80;1.00
3208;DHT22;1616;52.394;9.756;2023-05-02T08:18:42;13.90;1.00
3208;DHT22;1616;52.394;9.756;2023-05-02T08:21:07;14.10;1.00
3208;DHT22;1616;52.394;9.756;2023-05-02T08:23:33;14.20;1.00
3208;DHT22;1616;52.394;9.756;2023-05-02T08:25:59;14.40;1.00
3208;DHT22;1616;52.394;9.756;2023-05-02T08:28:25;14.40;1.00
3208;DHT22;1616;52.394;9.756;2023-05-02T08:30:50;14.50;1.00
3208;DHT22;1616;52.394;9.756;2023-05-02T08:33:16;14.50;1.00
3208;DHT22;1616;52.394;9.756;2023-05-02T08:35:42;14.50;1.00
3208;DHT22;1616;52.394;9.756;2023-05-02T08:38:07;14.50;1.00
3208;DHT22;1616;52.394;9.756;2023-05-02T08:40:37;14.40;1.00
3208;DHT22;1616;52.394;9.756;2023-05-02T08:43:04;14.30;1.00
3208;DHT22;1616;52.394;9.756;2023-05-02T08:45:43;14.70;1.00
3208;DHT22;1616;52.394;9.756;2023-05-02T08:48:12;14.20;1.00
3208;DHT22;1616;52.394;9.756;2023-05-02T08:50:39;14.20;1.00
3208;DHT22;1616;52.394;9.756;2023-05-02T08:53:07;14.20;1.00
3208;DHT22;1616;52.394;9.756;2023-05-02T08:55:35;14.20;1.00
3208;DHT22;1616;52.394;9.756;2023-05-02T08:58:02;14.20;1.00
3208;DHT22;1616;52.394;9.756;2023-05-02T09:00:28;14.20;1.00
3208;DHT22;1616;52.394;9.756;2023-05-02T09:05:38;14.30;1.00
3208;DHT22;1616;52.394;9.756;2023-05-02T09:08:05;14.20;1.00
3208;DHT22;1616;52.394;9.756;2023-05-02T09:10:34;14.20;1.00
3208;DHT22;1616;52.394;9.756;2023-05-02T09:16:08;14.10;1.00
3208;DHT22;1616;52.394;9.756;2023-05-02T09:18:41;14.10;1.00
3208;DHT22;1616;52.394;9.756;2023-05-02T09:21:16;14.00;1.00
3208;DHT22;1616;52.394;9.756;2023-05-02T09:23:51;13.90;1.00
3208;DHT22;1616;52.394;9.756;2023-05-02T09:26:29;13.90;1.00
3208;DHT22;1616;52.394;9.756;2023-05-02T09:29:02;13.80;1.00
3208;DHT22;1616;52.394;9.756;2023-05-02T09:31:31;13.80;1.00
3208;DHT22;1616;52.394;9.756;2023-05-02T09:34:08;13.90;1.00
3208;DHT22;1616;52.394;9.756;2023-05-02T09:39:12;14.10;1.00
3208;DHT22;1616;52.394;9.756;2023-05-02T09:41:46;14.30;1.00
3208;DHT22;1616;52.394;9.756;2023-05-02T09:44:14;14.60;1.00
3208;DHT22;1616;52.394;9.756;2023-05-02T09:46:50;14.80;1.00
3208;DHT22;1616;52.394;9.756;2023-05-02T09:49:16;15.00;1.00
3208;DHT22;1616;52.394;9.756;2023-05-02T09:51:44;15.10;1.00
3208;DHT22;1616;52.394;9.756;2023-05-02T09:54:12;15.30;1.00
3208;DHT22;1616;52.394;9.756;2023-05-02T09:56:54;15.60;1.00
3208;DHT22;1616;52.394;9.756;2023-05-02T09:59:21;15.80;1.00
3208;DHT22;1616;52.394;9.756;2023-05-02T10:01:57;16.10;1.00
3208;DHT22;1616;52.394;9.756;2023-05-02T10:04:24;16.20;1.00
3208;DHT22;1616;52.394;9.756;2023-05-02T10:06:51;16.40;1.00
3208;DHT22;1616;52.394;9.756;2023-05-02T10:09:18;16.60;1.00
3208;DHT22;1616;52.394;9.756;2023-05-02T10:11:49;16.70;1.00
3208;DHT22;1616;52.394;9.756;2023-05-02T10:14:22;16.90;1.00
3208;DHT22;1616;52.394;9.756;2023-05-02T10:16:56;17.20;1.00
3208;DHT22;1616;52.394;9.756;2023-05-02T10:19:26;17.10;1.00
3208;DHT22;1616;52.394;9.756;2023-05-02T10:21:53;17.00;1.00
3208;DHT22;1616;52.394;9.756;2023-05-02T10:24:20;17.00;1.00
3208;DHT22;1616;52.394;9.756;2023-05-02T10:26:47;17.00;1.00
3208;DHT22;1616;52.394;9.756;2023-05-02T10:29:13;16.90;1.00
3208;DHT22;1616;52.394;9.756;2023-05-02T10:31:39;16.80;1.00
3208;DHT22;1616;52.394;9.756;2023-05-02T10:34:10;16.70;1.00
3208;DHT22;1616;52.394;9.756;2023-05-02T10:36:36;16.60;1.00
3208;DHT22;1616;52.394;9.756;2023-05-02T10:39:02;16.60;1.00
3208;DHT22;1616;52.394;9.756;2023-05-02T10:41:32;16.60;1.00
3208;DHT22;1616;52.394;9.756;2023-05-02T10:43:59;16.60;1.00
3208;DHT22;1616;52.394;9.756;2023-05-02T10:46:35;16.70;1.00
3208;DHT22;1616;52.394;9.756;2023-05-02T10:49:05;16.60;1.00
3208;DHT22;1616;52.394;9.756;2023-05-02T10:51:32;16.60;1.00
3208;DHT22;1616;52.394;9.756;2023-05-02T10:57:03;16.60;1.00
3208;DHT22;1616;52.394;9.756;2023-05-02T11:01:59;16.80;1.00
3208;DHT22;1616;52.394;9.756;2023-05-02T11:05:02;16.90;1.00
3208;DHT22;1616;52.394;9.756;2023-05-02T11:07:30;17.10;1.00
3208;DHT22;1616;52.394;9.756;2023-05-02T11:12:50;17.50;1.00
3208;DHT22;1616;52.394;9.756;2023-05-02T11:18:00;17.70;1.00
3208;DHT22;1616;52.394;9.756;2023-05-02T11:20:28;17.90;1.00
3208;DHT22;1616;52.394;9.756;2023-05-02T11:22:55;18.00;1.00
3208;DHT22;1616;52.394;9.756;2023-05-02T11:25:32;18.10;1.00
3208;DHT22;1616;52.394;9.756;2023-05-02T11:27:58;18.30;1.00
3208;DHT22;1616;52.394;9.756;2023-05-02T11:30:37;18.50;1.00
3208;DHT22;1616;52.394;9.756;2023-05-02T11:35:34;18.90;1.00
3208;DHT22;1616;52.394;9.756;2023-05-02T11:38:10;18.90;1.00
3208;DHT22;1616;52.394;9.756;2023-05-02T11:40:36;18.90;1.00
3208;DHT22;1616;52.394;9.756;2023-05-02T11:43:12;18.80;1.00
3208;DHT22;1616;52.394;9.756;2023-05-02T11:45:39;18.70;1.00
3208;DHT22;1616;52.394;9.756;2023-05-02T11:48:07;18.70;1.00
3208;DHT22;1616;52.394;9.756;2023-05-02T11:53:13;18.60;1.00
3208;DHT22;1616;52.394;9.756;2023-05-02T11:55:52;18.60;1.00
3208;DHT22;1616;52.394;9.756;2023-05-02T11:58:26;18.50;1.00
3208;DHT22;1616;52.394;9.756;2023-05-02T12:00:57;18.60;1.00
3208;DHT22;1616;52.394;9.756;2023-05-02T12:03:28;18.60;1.00
3208;DHT22;1616;52.394;9.756;2023-05-02T12:05:55;18.70;1.00
3208;DHT22;1616;52.394;9.756;2023-05-02T12:08:26;18.70;1.00
3208;DHT22;1616;52.394;9.756;2023-05-02T12:10:54;18.80;1.00
3208;DHT22;1616;52.394;9.756;2023-05-02T12:13:23;18.90;1.00
3208;DHT22;1616;52.394;9.756;2023-05-02T12:15:50;19.10;1.00
3208;DHT22;1616;52.394;9.756;2023-05-02T12:18:17;19.30;1.00
3208;DHT22;1616;52.394;9.756;2023-05-02T12:20:43;19.40;1.00
3208;DHT22;1616;52.394;9.756;2023-05-02T12:23:09;19.60;1.00
3208;DHT22;1616;52.394;9.756;2023-05-02T12:25:37;20.00;1.00
3208;DHT22;1616;52.394;9.756;2023-05-02T12:28:03;20.70;1.00
3208;DHT22;1616;52.394;9.756;2023-05-02T12:30:30;21.40;1.00
3208;DHT22;1616;52.394;9.756;2023-05-02T12:33:01;21.80;1.00
3208;DHT22;1616;52.394;9.756;2023-05-02T12:35:28;21.80;1.00
3208;DHT22;1616;52.394;9.756;2023-05-02T12:38:06;21.50;1.00
3208;DHT22;1616;52.394;9.756;2023-05-02T12:40:31;21.30;1.00
3208;DHT22;1616;52.394;9.756;2023-05-02T12:43:02;21.00;1.00
3208;DHT22;1616;52.394;9.756;2023-05-02T12:45:35;21.00;1.00
3208;DHT22;1616;52.394;9.756;2023-05-02T12:48:01;21.00;1.00
3208;DHT22;1616;52.394;9.756;2023-05-02T12:50:39;20.80;1.00
3208;DHT22;1616;52.394;9.756;2023-05-02T12:53:05;20.40;1.00
3208;DHT22;1616;52.394;9.756;2023-05-02T12:55:32;20.00;1.00
3208;DHT22;1616;52.394;9.756;2023-05-02T12:58:06;19.60;1.00
3208;DHT22;1616;52.394;9.756;2023-05-02T13:00:37;19.40;1.00
3208;DHT22;1616;52.394;9.756;2023-05-02T13:03:04;19.20;1.00
3208;DHT22;1616;52.394;9.756;2023-05-02T13:05:30;19.10;1.00
3208;DHT22;1616;52.394;9.756;2023-05-02T13:07:56;18.90;1.00
3208;DHT22;1616;52.394;9.756;2023-05-02T13:10:22;18.70;1.00
3208;DHT22;1616;52.394;9.756;2023-05-02T13:12:49;18.80;1.00
3208;DHT22;1616;52.394;9.756;2023-05-02T13:15:15;18.80;1.00
3208;DHT22;1616;52.394;9.756;2023-05-02T13:17:41;18.70;1.00
3208;DHT22;1616;52.394;9.756;2023-05-02T13:20:07;18.60;1.00
3208;DHT22;1616;52.394;9.756;2023-05-02T13:22:33;18.60;1.00
3208;DHT22;1616;52.394;9.756;2023-05-02T13:24:59;18.50;1.00
3208;DHT22;1616;52.394;9.756;2023-05-02T13:27:25;18.30;1.00
3208;DHT22;1616;52.394;9.756;2023-05-02T13:29:51;18.10;1.00
3208;DHT22;1616;52.394;9.756;2023-05-02T13:32:17;18.00;1.00
3208;DHT22;1616;52.394;9.756;2023-05-02T13:34:43;17.90;1.00
3208;DHT22;1616;52.394;9.756;2023-05-02T13:37:10;17.80;1.00
3208;DHT22;1616;52.394;9.756;2023-05-02T13:39:35;17.70;1.00
3208;DHT22;1616;52.394;9.756;2023-05-02T13:42:01;17.80;1.00
3208;DHT22;1616;52.394;9.756;2023-05-02T13:44:29;17.70;1.00
3208;DHT22;1616;52.394;9.756;2023-05-02T13:46:55;17.60;1.00
3208;DHT22;1616;52.394;9.756;2023-05-02T13:49:20;17.50;1.00
3208;DHT22;1616;52.394;9.756;2023-05-02T13:51:46;17.40;1.00
3208;DHT22;1616;52.394;9.756;2023-05-02T13:54:12;17.40;1.00
3208;DHT22;1616;52.394;9.756;2023-05-02T13:56:38;17.20;1.00
3208;DHT22;1616;52.394;9.756;2023-05-02T13:59:07;17.40;1.00
3208;DHT22;1616;52.394;9.756;2023-05-02T14:01:33;17.40;1.00
3208;DHT22;1616;52.394;9.756;2023-05-02T14:03:59;17.40;1.00
3208;DHT22;1616;52.394;9.756;2023-05-02T14:06:25;17.50;1.00
3208;DHT22;1616;52.394;9.756;2023-05-02T14:08:51;17.50;1.00
3208;DHT22;1616;52.394;9.756;2023-05-02T14:11:16;17.50;1.00
3208;DHT22;1616;52.394;9.756;2023-05-02T14:13:42;17.40;1.00
3208;DHT22;1616;52.394;9.756;2023-05-02T14:16:08;17.40;1.00
3208;DHT22;1616;52.394;9.756;2023-05-02T14:18:34;17.30;1.00
3208;DHT22;1616;52.394;9.756;2023-05-02T14:20:59;17.20;1.00
3208;DHT22;1616;52.394;9.756;2023-05-02T14:23:25;17.20;1.00
3208;DHT22;1616;52.394;9.756;2023-05-02T14:25:53;17.20;1.00
3208;DHT22;1616;52.394;9.756;2023-05-02T14:28:19;17.20;1.00
3208;DHT22;1616;52.394;9.756;2023-05-02T14:30:47;17.30;1.00
3208;DHT22;1616;52.394;9.756;2023-05-02T14:33:13;17.40;1.00
3208;DHT22;1616;52.394;9.756;2023-05-02T14:35:39;17.40;1.00
3208;DHT22;1616;52.394;9.756;2023-05-02T14:38:05;17.40;1.00
3208;DHT22;1616;52.394;9.756;2023-05-02T14:40:31;17.50;1.00
3208;DHT22;1616;52.394;9.756;2023-05-02T14:42:57;17.30;1.00
3208;DHT22;1616;52.394;9.756;2023-05-02T14:45:23;17.20;1.00
3208;DHT22;1616;52.394;9.756;2023-05-02T14:47:49;17.00;1.00
3208;DHT22;1616;52.394;9.756;2023-05-02T14:50:15;16.80;1.00
3208;DHT22;1616;52.394;9.756;2023-05-02T14:52:41;16.70;1.00
3208;DHT22;1616;52.394;9.756;2023-05-02T14:55:10;16.50;1.00
3208;DHT22;1616;52.394;9.756;2023-05-02T14:57:36;16.20;1.00
3208;DHT22;1616;52.394;9.756;2023-05-02T15:00:03;16.10;1.00
3208;DHT22;1616;52.394;9.756;2023-05-02T15:02:29;16.00;1.00
3208;DHT22;1616;52.394;9.756;2023-05-02T15:04:55;15.90;1.00
3208;DHT22;1616;52.394;9.756;2023-05-02T15:07:20;15.80;1.00
3208;DHT22;1616;52.394;9.756;2023-05-02T15:09:46;15.70;1.00
3208;DHT22;1616;52.394;9.756;2023-05-02T15:12:12;15.60;1.00
3208;DHT22;1616;52.394;9.756;2023-05-02T15:14:37;15.60;1.00
3208;DHT22;1616;52.394;9.756;2023-05-02T15:17:03;15.70;1.00
3208;DHT22;1616;52.394;9.756;2023-05-02T15:19:28;15.70;1.00
3208;DHT22;1616;52.394;9.756;2023-05-02T15:21:54;15.70;1.00
3208;DHT22;1616;52.394;9.756;2023-05-02T15:24:22;15.80;1.00
3208;DHT22;1616;52.394;9.756;2023-05-02T15:26:51;15.90;1.00
3208;DHT22;1616;52.394;9.756;2023-05-02T15:29:17;15.90;1.00
3208;DHT22;1616;52.394;9.756;2023-05-02T15:31:43;16.00;1.00
3208;DHT22;1616;52.394;9.756;2023-05-02T15:34:09;16.00;1.00
3208;DHT22;1616;52.394;9.756;2023-05-02T15:36:34;16.10;1.00
3208;DHT22;1616;52.394;9.756;2023-05-02T15:39:02;16.20;1.00
3208;DHT22;1616;52.394;9.756;2023-05-02T15:41:28;16.30;1.00
3208;DHT22;1616;52.394;9.756;2023-05-02T15:43:54;16.40;1.00
3208;DHT22;1616;52.394;9.756;2023-05-02T15:46:20;16.70;1.00
3208;DHT22;1616;52.394;9.756;2023-05-02T15:48:46;16.90;1.00
3208;DHT22;1616;52.394;9.756;2023-05-02T15:51:12;17.00;1.00
3208;DHT22;1616;52.394;9.756;2023-05-02T15:53:38;17.00;1.00
3208;DHT22;1616;52.394;9.756;2023-05-02T15:56:13;17.00;1.00
3208;DHT22;1616;52.394;9.756;2023-05-02T15:58:39;17.10;1.00
3208;DHT22;1616;52.394;9.756;2023-05-02T16:01:05;17.10;1.00
3208;DHT22;1616;52.394;9.756;2023-05-02T16:03:31;17.00;1.00
3208;DHT22;1616;52.394;9.756;2023-05-02T16:05:59;17.00;1.00
3208;DHT22;1616;52.394;9.756;2023-05-02T16:08:25;17.10;1.00
3208;DHT22;1616;52.394;9.756;2023-05-02T16:10:51;17.10;1.00
3208;DHT22;1616;52.394;9.756;2023-05-02T16:13:18;17.00;1.00
3208;DHT22;1616;52.394;9.756;2023-05-02T16:15:45;16.90;1.00
3208;DHT22;1616;52.394;9.756;2023-05-02T16:18:13;16.80;1.00
3208;DHT22;1616;52.394;9.756;2023-05-02T16:20:39;16.70;1.00
3208;DHT22;1616;52.394;9.756;2023-05-02T16:23:07;16.70;1.00
3208;DHT22;1616;52.394;9.756;2023-05-02T16:25:33;16.80;1.00
3208;DHT22;1616;52.394;9.756;2023-05-02T16:28:00;16.70;1.00
3208;DHT22;1616;52.394;9.756;2023-05-02T16:30:26;16.70;1.00
3208;DHT22;1616;52.394;9.756;2023-05-02T16:32:52;16.70;1.00
3208;DHT22;1616;52.394;9.756;2023-05-02T16:35:18;16.80;1.00
3208;DHT22;1616;52.394;9.756;2023-05-02T16:37:45;16.70;1.00
3208;DHT22;1616;52.394;9.756;2023-05-02T16:40:11;16.70;1.00
3208;DHT22;1616;52.394;9.756;2023-05-02T16:42:37;16.70;1.00
3208;DHT22;1616;52.394;9.756;2023-05-02T16:45:04;16.70;1.00
3208;DHT22;1616;52.394;9.756;2023-05-02T16:47:31;16.70;1.00
3208;DHT22;1616;52.394;9.756;2023-05-02T16:49:58;16.50;1.00
3208;DHT22;1616;52.394;9.756;2023-05-02T16:52:24;16.30;1.00
3208;DHT22;1616;52.394;9.756;2023-05-02T16:54:50;16.20;1.00
3208;DHT22;1616;52.394;9.756;2023-05-02T16:57:16;16.20;1.00
3208;DHT22;1616;52.394;9.756;2023-05-02T16:59:46;16.30;1.00